createdAt,value
2022-12-19T00:00:45.642Z,100533.00
2022-12-19T00:03:18.813Z,100539.00
2022-12-19T00:05:51.550Z,100529.00
2022-12-19T00:08:24.401Z,100537.00
2022-12-19T00:11:05.238Z,100525.00
2022-12-19T00:13:41.156Z,100526.00
2022-12-19T00:16:20.098Z,100527.00
2022-12-19T00:18:55.478Z,100523.00
2022-12-19T00:21:29.716Z,100521.00
2022-12-19T00:24:02.766Z,100525.00
2022-12-19T00:26:38.423Z,100520.00
2022-12-19T00:29:14.623Z,100527.00
2022-12-19T00:31:47.485Z,100520.00
2022-12-19T00:34:20.418Z,100511.00
2022-12-19T00:36:53.506Z,100513.00
2022-12-19T00:39:26.341Z,100506.00
2022-12-19T00:41:59.071Z,100505.00
2022-12-19T00:44:31.835Z,100504.00
2022-12-19T00:47:05.006Z,100506.00
2022-12-19T00:49:37.946Z,100513.00
2022-12-19T00:52:14.523Z,100512.00
2022-12-19T00:54:47.662Z,100505.00
2022-12-19T00:57:20.649Z,100505.00
2022-12-19T00:59:53.683Z,100497.00
2022-12-19T01:02:26.853Z,100498.00
2022-12-19T01:04:59.793Z,100499.00
2022-12-19T01:07:32.651Z,100497.00
2022-12-19T01:10:05.613Z,100488.00
2022-12-19T01:12:50.806Z,100497.00
2022-12-19T01:15:24.531Z,100500.00
2022-12-19T01:17:57.634Z,100491.00
2022-12-19T01:20:30.614Z,100486.00
2022-12-19T01:23:04.011Z,100482.00
2022-12-19T01:25:39.159Z,100480.00
2022-12-19T01:28:15.006Z,100485.00
2022-12-19T01:30:48.592Z,100481.00
2022-12-19T01:33:23.259Z,100478.00
2022-12-19T01:35:56.260Z,100478.00
2022-12-19T01:38:29.218Z,100477.00
2022-12-19T01:41:02.384Z,100477.00
2022-12-19T01:43:37.792Z,100475.00
2022-12-19T01:46:13.618Z,100467.00
2022-12-19T01:48:49.069Z,100478.00
2022-12-19T01:51:23.746Z,100472.00
2022-12-19T01:54:04.636Z,100469.00
2022-12-19T01:56:42.081Z,100465.00
2022-12-19T01:59:19.486Z,100466.00
2022-12-19T02:01:53.997Z,100463.00
2022-12-19T02:04:32.012Z,100459.00
2022-12-19T02:07:08.167Z,100459.00
2022-12-19T02:09:38.263Z,100459.00
2022-12-19T02:12:11.306Z,100466.00
2022-12-19T02:14:45.054Z,100470.00
2022-12-19T02:17:22.242Z,100466.00
2022-12-19T02:20:03.043Z,100453.00
2022-12-19T02:23:06.624Z,100463.00
2022-12-19T02:25:51.437Z,100460.00
2022-12-19T02:28:45.384Z,100450.00
2022-12-19T02:31:35.147Z,100451.00
2022-12-19T02:34:15.775Z,100450.00
2022-12-19T02:36:59.764Z,100442.00
2022-12-19T02:39:34.968Z,100435.00
2022-12-19T02:42:09.378Z,100431.00
2022-12-19T02:44:48.199Z,100440.00
2022-12-19T02:47:22.985Z,100444.00
2022-12-19T02:49:56.023Z,100443.00
2022-12-19T02:52:31.111Z,100450.00
2022-12-19T02:55:08.963Z,100442.00
2022-12-19T02:57:55.965Z,100449.00
2022-12-19T03:00:30.525Z,100441.00
2022-12-19T03:03:17.338Z,100442.00
2022-12-19T03:06:11.480Z,100437.00
2022-12-19T03:08:46.596Z,100433.00
2022-12-19T03:11:19.841Z,100432.00
2022-12-19T03:14:00.354Z,100421.00
2022-12-19T03:16:33.446Z,100428.00
2022-12-19T03:19:06.543Z,100425.00
2022-12-19T03:21:55.504Z,100429.00
2022-12-19T03:24:29.289Z,100424.00
2022-12-19T03:27:07.063Z,100425.00
2022-12-19T03:29:51.495Z,100420.00
2022-12-19T03:32:27.037Z,100419.00
2022-12-19T03:35:05.135Z,100416.00
2022-12-19T03:37:40.203Z,100410.00
2022-12-19T03:40:15.542Z,100407.00
2022-12-19T03:43:07.682Z,100407.00
2022-12-19T03:46:01.042Z,100411.00
2022-12-19T03:48:36.074Z,100406.00
2022-12-19T03:51:20.343Z,100408.00
2022-12-19T03:54:22.131Z,100401.00
2022-12-19T03:57:18.366Z,100397.00
2022-12-19T04:00:10.914Z,100398.00
2022-12-19T04:02:46.190Z,100393.00
2022-12-19T04:05:20.881Z,100402.00
2022-12-19T04:07:56.024Z,100394.00
2022-12-19T04:10:30.657Z,100386.00
2022-12-19T04:13:08.820Z,100394.00
2022-12-19T04:15:53.481Z,100388.00
2022-12-19T04:18:31.125Z,100383.00
2022-12-19T04:21:15.240Z,100379.00
2022-12-19T04:23:55.814Z,100374.00
2022-12-19T04:26:33.361Z,100381.00
2022-12-19T04:29:08.505Z,100374.00
2022-12-19T04:31:44.158Z,100372.00
2022-12-19T04:34:18.867Z,100364.00
2022-12-19T04:36:52.345Z,100357.00
2022-12-19T04:39:25.212Z,100355.00
2022-12-19T04:41:59.754Z,100349.00
2022-12-19T04:44:32.719Z,100356.00
2022-12-19T04:47:05.624Z,100363.00
2022-12-19T04:49:41.901Z,100360.00
2022-12-19T04:52:14.849Z,100354.00
2022-12-19T04:54:47.940Z,100347.00
2022-12-19T05:00:16.214Z,100341.00
2022-12-19T05:02:49.105Z,100333.00
2022-12-19T05:05:22.273Z,100333.00
2022-12-19T05:07:55.094Z,100338.00
2022-12-19T05:10:28.421Z,100332.00
2022-12-19T05:13:01.321Z,100330.00
2022-12-19T05:15:34.421Z,100338.00
2022-12-19T05:18:08.506Z,100345.00
2022-12-19T05:20:42.025Z,100362.00
2022-12-19T05:23:17.325Z,100366.00
2022-12-19T05:25:49.534Z,100360.00
2022-12-19T05:28:24.340Z,100370.00
2022-12-19T05:31:03.810Z,100373.00
2022-12-19T05:33:37.568Z,100364.00
2022-12-19T05:36:11.267Z,100380.00
2022-12-19T05:38:44.706Z,100363.00
2022-12-19T05:41:19.051Z,100362.00
2022-12-19T05:43:56.246Z,100374.00
2022-12-19T05:46:29.505Z,100388.00
2022-12-19T05:49:02.359Z,100383.00
2022-12-19T05:51:36.335Z,100392.00
2022-12-19T05:54:09.154Z,100394.00
2022-12-19T05:56:41.909Z,100418.00
2022-12-19T05:59:14.847Z,100432.00
2022-12-19T06:01:47.877Z,100446.00
2022-12-19T06:04:20.841Z,100458.00
2022-12-19T06:06:53.779Z,100449.00
2022-12-19T06:09:26.768Z,100435.00
2022-12-19T06:11:59.729Z,100399.00
2022-12-19T06:14:32.724Z,100401.00
2022-12-19T06:17:05.479Z,100389.00
2022-12-19T06:19:38.447Z,100406.00
2022-12-19T06:22:11.392Z,100407.00
2022-12-19T06:24:44.307Z,100424.00
2022-12-19T06:27:17.597Z,100448.00
2022-12-19T06:29:50.419Z,100464.00
2022-12-19T06:32:24.201Z,100457.00
2022-12-19T06:35:04.608Z,100474.00
2022-12-19T06:37:35.984Z,100467.00
2022-12-19T06:40:08.746Z,100464.00
2022-12-19T06:42:41.749Z,100457.00
2022-12-19T06:45:15.133Z,100452.00
2022-12-19T06:47:48.374Z,100460.00
2022-12-19T06:50:21.232Z,100459.00
2022-12-19T06:52:54.067Z,100453.00
2022-12-19T06:55:29.379Z,100452.00
2022-12-19T06:58:02.568Z,100455.00
2022-12-19T07:00:36.616Z,100450.00
2022-12-19T07:03:11.056Z,100449.00
2022-12-19T07:05:44.126Z,100444.00
2022-12-19T07:08:17.080Z,100443.00
2022-12-19T07:10:50.447Z,100443.00
2022-12-19T07:13:23.261Z,100445.00
2022-12-19T07:15:58.133Z,100453.00
2022-12-19T07:18:31.309Z,100457.00
2022-12-19T07:21:04.448Z,100454.00
2022-12-19T07:23:37.535Z,100454.00
2022-12-19T07:26:10.476Z,100451.00
2022-12-19T07:28:49.031Z,100452.00
2022-12-19T07:31:22.017Z,100447.00
2022-12-19T07:33:55.684Z,100445.00
2022-12-19T07:36:28.669Z,100447.00
2022-12-19T07:39:01.667Z,100449.00
2022-12-19T07:41:34.960Z,100453.00
2022-12-19T07:44:08.108Z,100454.00
2022-12-19T07:46:41.085Z,100459.00
2022-12-19T07:49:17.078Z,100460.00
2022-12-19T07:51:48.530Z,100461.00
2022-12-19T07:54:21.618Z,100464.00
2022-12-19T07:56:54.694Z,100473.00
2022-12-19T07:59:32.229Z,100457.00
2022-12-19T08:02:02.086Z,100461.00
2022-12-19T08:04:34.992Z,100472.00
2022-12-19T08:07:07.845Z,100463.00
2022-12-19T08:09:40.894Z,100463.00
2022-12-19T08:12:13.803Z,100459.00
2022-12-19T08:14:46.796Z,100455.00
2022-12-19T08:17:20.895Z,100457.00
2022-12-19T08:19:53.685Z,100462.00
2022-12-19T08:22:26.481Z,100469.00
2022-12-19T08:24:59.514Z,100474.00
2022-12-19T08:27:32.482Z,100460.00
2022-12-19T08:30:05.936Z,100469.00
2022-12-19T08:32:38.944Z,100476.00
2022-12-19T08:35:12.692Z,100479.00
2022-12-19T08:37:45.668Z,100471.00
2022-12-19T08:40:18.755Z,100488.00
2022-12-19T08:42:52.143Z,100479.00
2022-12-19T08:45:24.894Z,100480.00
2022-12-19T08:47:58.846Z,100477.00
2022-12-19T08:50:31.736Z,100476.00
2022-12-19T08:53:05.057Z,100480.00
2022-12-19T08:55:38.969Z,100482.00
2022-12-19T08:58:11.892Z,100475.00
2022-12-19T09:00:49.007Z,100468.00
2022-12-19T09:03:19.048Z,100475.00
2022-12-19T09:06:06.649Z,100470.00
2022-12-19T09:08:31.915Z,100466.00
2022-12-19T09:11:06.722Z,100471.00
2022-12-19T09:13:41.258Z,100476.00
2022-12-19T09:16:22.589Z,100468.00
2022-12-19T09:18:57.424Z,100480.00
2022-12-19T09:21:34.714Z,100487.00
2022-12-19T09:24:08.178Z,100484.00
2022-12-19T09:26:41.982Z,100489.00
2022-12-19T09:29:19.752Z,100499.00
2022-12-19T09:31:53.877Z,100493.00
2022-12-19T09:34:23.325Z,100504.00
2022-12-19T09:36:57.695Z,100509.00
2022-12-19T09:39:30.503Z,100504.00
2022-12-19T09:42:05.636Z,100501.00
2022-12-19T09:44:52.940Z,100501.00
2022-12-19T09:47:27.634Z,100504.00
2022-12-19T09:50:00.893Z,100515.00
2022-12-19T09:52:41.494Z,100522.00
2022-12-19T09:55:17.229Z,100524.00
2022-12-19T09:57:54.788Z,100503.00
2022-12-19T10:00:28.057Z,100514.00
2022-12-19T10:03:28.636Z,100503.00
2022-12-19T10:06:46.118Z,100509.00
2022-12-19T10:10:36.268Z,100501.00
2022-12-19T10:12:39.487Z,100503.00
2022-12-19T10:14:03.816Z,100499.00
2022-12-19T10:17:23.533Z,100497.00
2022-12-19T10:20:06.197Z,100499.00
2022-12-19T10:22:41.126Z,100507.00
2022-12-19T10:25:33.538Z,100502.00
2022-12-19T10:28:16.974Z,100507.00
2022-12-19T10:30:54.679Z,100499.00
2022-12-19T10:33:46.084Z,100498.00
2022-12-19T10:36:19.194Z,100497.00
2022-12-19T10:39:09.713Z,100498.00
2022-12-19T10:41:44.463Z,100489.00
2022-12-19T10:44:17.801Z,100489.00
2022-12-19T10:46:55.184Z,100486.00
2022-12-19T10:49:32.705Z,100494.00
2022-12-19T10:52:07.587Z,100500.00
2022-12-19T10:54:45.514Z,100498.00
2022-12-19T10:57:32.118Z,100494.00
2022-12-19T11:00:11.433Z,100503.00
2022-12-19T11:02:46.446Z,100506.00
2022-12-19T11:05:51.254Z,100499.00
2022-12-19T11:08:34.522Z,100500.00
2022-12-19T11:14:28.207Z,100487.00
2022-12-19T11:19:29.296Z,100492.00
2022-12-19T11:22:07.370Z,100481.00
2022-12-19T11:29:15.184Z,100476.00
2022-12-19T11:29:32.717Z,100474.00
2022-12-19T11:29:43.196Z,100475.00
2022-12-19T11:30:45.503Z,100477.00
2022-12-19T11:32:44.490Z,100469.00
2022-12-19T11:35:24.886Z,100457.00
2022-12-19T11:38:12.567Z,100462.00
2022-12-19T11:40:49.508Z,100461.00
2022-12-19T11:43:43.623Z,100454.00
2022-12-19T11:46:13.886Z,100458.00
2022-12-19T11:48:53.494Z,100462.00
2022-12-19T11:51:28.523Z,100450.00
2022-12-19T11:54:18.757Z,100453.00
2022-12-19T11:56:54.207Z,100452.00
2022-12-19T11:59:36.441Z,100434.00
2022-12-19T12:02:46.173Z,100429.00
2022-12-19T12:05:26.399Z,100425.00
2022-12-19T12:11:47.629Z,100415.00
2022-12-19T12:13:56.083Z,100416.00
2022-12-19T12:22:05.963Z,100416.00
2022-12-19T12:31:21.026Z,100410.00
2022-12-19T12:31:22.672Z,100400.00
2022-12-19T12:31:42.777Z,100405.00
2022-12-19T12:31:51.730Z,100421.00
2022-12-19T12:32:01.911Z,100422.00
2022-12-19T12:35:38.456Z,100408.00
2022-12-19T12:39:33.860Z,100405.00
2022-12-19T12:42:15.452Z,100391.00
2022-12-19T12:44:50.701Z,100382.00
2022-12-19T12:47:26.338Z,100392.00
2022-12-19T12:50:03.914Z,100382.00
2022-12-19T12:52:50.670Z,100387.00
2022-12-19T12:55:34.539Z,100370.00
2022-12-19T12:58:12.190Z,100369.00
2022-12-19T13:00:41.847Z,100372.00
2022-12-19T13:03:25.331Z,100372.00
2022-12-19T13:06:01.530Z,100358.00
2022-12-19T13:08:54.244Z,100349.00
2022-12-19T13:11:50.272Z,100346.00
2022-12-19T13:14:43.729Z,100339.00
2022-12-19T13:17:18.500Z,100350.00
2022-12-19T13:20:13.632Z,100347.00
2022-12-19T13:22:47.261Z,100345.00
2022-12-19T13:25:31.716Z,100343.00
2022-12-19T13:28:09.663Z,100349.00
2022-12-19T13:31:19.422Z,100352.00
2022-12-19T13:33:18.779Z,100350.00
2022-12-19T13:39:46.451Z,100346.00
2022-12-19T13:39:48.574Z,100335.00
2022-12-19T13:41:09.717Z,100348.00
2022-12-19T13:43:50.805Z,100343.00
2022-12-19T13:46:34.837Z,100346.00
2022-12-19T13:49:12.953Z,100340.00
2022-12-19T13:51:54.022Z,100338.00
2022-12-19T13:54:32.277Z,100334.00
2022-12-19T13:57:09.234Z,100343.00
2022-12-19T13:59:40.432Z,100334.00
2022-12-19T14:02:16.380Z,100326.00
2022-12-19T14:04:49.795Z,100322.00
2022-12-19T14:07:49.526Z,100324.00
2022-12-19T14:11:41.032Z,100315.00
2022-12-19T14:13:50.898Z,100316.00
2022-12-19T14:15:45.427Z,100305.00
2022-12-19T14:18:44.253Z,100295.00
2022-12-19T14:22:05.901Z,100296.00
2022-12-19T14:23:46.651Z,100288.00
2022-12-19T14:28:17.446Z,100282.00
2022-12-19T14:29:07.145Z,100273.00
2022-12-19T14:31:58.716Z,100257.00
2022-12-19T14:36:59.713Z,100260.00
2022-12-19T14:39:44.126Z,100264.00
2022-12-19T14:43:57.607Z,100279.00
2022-12-19T14:51:42.990Z,100271.00
2022-12-19T14:54:05.913Z,100269.00
2022-12-19T14:54:28.276Z,100257.00
2022-12-19T14:56:59.928Z,100244.00
2022-12-19T14:59:40.506Z,100247.00
2022-12-19T15:02:15.341Z,100244.00
2022-12-19T15:04:55.286Z,100244.00
2022-12-19T15:07:29.882Z,100245.00
2022-12-19T15:11:00.712Z,100241.00
2022-12-19T15:14:49.250Z,100238.00
2022-12-19T15:16:04.268Z,100247.00
2022-12-19T15:18:42.292Z,100244.00
2022-12-19T15:21:18.669Z,100245.00
2022-12-19T15:23:51.469Z,100243.00
2022-12-19T15:26:37.798Z,100253.00
2022-12-19T15:29:16.713Z,100248.00
2022-12-19T15:31:47.702Z,100256.00
2022-12-19T15:34:39.158Z,100242.00
2022-12-19T15:37:03.070Z,100240.00
2022-12-19T15:39:36.099Z,100228.00
2022-12-19T15:42:10.341Z,100235.00
2022-12-19T15:44:47.640Z,100240.00
2022-12-19T15:47:31.819Z,100242.00
2022-12-19T15:50:06.161Z,100239.00
2022-12-19T15:52:39.283Z,100226.00
2022-12-19T15:55:13.887Z,100225.00
2022-12-19T15:57:54.730Z,100224.00
2022-12-19T16:00:29.535Z,100224.00
2022-12-19T16:05:36.522Z,100236.00
2022-12-19T16:08:11.640Z,100228.00
2022-12-19T16:10:45.601Z,100245.00
2022-12-19T16:13:25.836Z,100242.00
2022-12-19T16:15:59.701Z,100229.00
2022-12-19T16:18:32.895Z,100228.00
2022-12-19T16:21:05.820Z,100218.00
2022-12-19T16:23:38.656Z,100221.00
2022-12-19T16:26:13.674Z,100227.00
2022-12-19T16:28:46.620Z,100219.00
2022-12-19T16:31:21.746Z,100216.00
2022-12-19T16:33:57.389Z,100214.00
2022-12-19T16:36:30.345Z,100228.00
2022-12-19T16:39:03.443Z,100226.00
2022-12-19T16:41:42.575Z,100220.00
2022-12-19T16:44:21.616Z,100214.00
2022-12-19T16:46:55.075Z,100207.00
2022-12-19T16:49:29.327Z,100204.00
2022-12-19T16:52:02.349Z,100208.00
2022-12-19T16:54:38.404Z,100205.00
2022-12-19T16:57:15.879Z,100208.00
2022-12-19T16:59:48.861Z,100214.00
2022-12-19T17:02:43.489Z,100212.00
2022-12-19T17:05:21.354Z,100211.00
2022-12-19T17:07:54.761Z,100205.00
2022-12-19T17:10:30.165Z,100212.00
2022-12-19T17:13:05.397Z,100212.00
2022-12-19T17:15:40.578Z,100211.00
2022-12-19T17:18:16.042Z,100211.00
2022-12-19T17:20:49.415Z,100214.00
2022-12-19T17:23:24.518Z,100221.00
2022-12-19T17:25:57.435Z,100218.00
2022-12-19T17:28:30.965Z,100222.00
2022-12-19T17:31:06.718Z,100219.00
2022-12-19T17:33:41.543Z,100219.00
2022-12-19T17:36:21.374Z,100214.00
2022-12-19T17:38:50.833Z,100223.00
2022-12-19T17:41:23.857Z,100221.00
2022-12-19T17:43:56.985Z,100230.00
2022-12-19T17:46:30.145Z,100231.00
2022-12-19T17:49:03.373Z,100238.00
2022-12-19T17:51:36.180Z,100240.00
2022-12-19T17:54:10.168Z,100251.00
2022-12-19T17:56:42.997Z,100250.00
2022-12-19T17:59:16.215Z,100255.00
2022-12-19T18:01:49.757Z,100247.00
2022-12-19T18:04:23.872Z,100254.00
2022-12-19T18:06:56.766Z,100244.00
2022-12-19T18:09:30.237Z,100256.00
2022-12-19T18:12:03.165Z,100254.00
2022-12-19T18:14:36.062Z,100260.00
2022-12-19T18:17:08.881Z,100266.00
2022-12-19T18:19:42.180Z,100257.00
2022-12-19T18:22:18.242Z,100263.00
2022-12-19T18:24:51.228Z,100262.00
2022-12-19T18:27:24.156Z,100268.00
2022-12-19T18:29:56.933Z,100267.00
2022-12-19T18:32:30.019Z,100280.00
2022-12-19T18:35:03.109Z,100288.00
2022-12-19T18:37:36.497Z,100288.00
2022-12-19T18:40:15.838Z,100286.00
2022-12-19T18:42:45.365Z,100287.00
2022-12-19T18:45:26.719Z,100292.00
2022-12-19T18:48:04.270Z,100282.00
2022-12-19T18:50:37.287Z,100289.00
2022-12-19T18:53:19.438Z,100289.00
2022-12-19T18:55:54.204Z,100289.00
2022-12-19T18:58:27.213Z,100284.00
2022-12-19T19:01:09.701Z,100295.00
2022-12-19T19:03:47.514Z,100301.00
2022-12-19T19:06:25.587Z,100304.00
2022-12-19T19:09:02.230Z,100310.00
2022-12-19T19:11:39.277Z,100308.00
2022-12-19T19:14:13.309Z,100302.00
2022-12-19T19:16:46.440Z,100291.00
2022-12-19T19:19:21.343Z,100313.00
2022-12-19T19:21:54.075Z,100315.00
2022-12-19T19:24:27.386Z,100305.00
2022-12-19T19:27:00.252Z,100307.00
2022-12-19T19:29:33.363Z,100316.00
2022-12-19T19:32:06.224Z,100316.00
2022-12-19T19:34:40.997Z,100322.00
2022-12-19T19:37:15.767Z,100320.00
2022-12-19T19:39:49.577Z,100314.00
2022-12-19T19:42:22.471Z,100319.00
2022-12-19T19:44:55.551Z,100321.00
2022-12-19T19:47:33.325Z,100322.00
2022-12-19T19:50:06.444Z,100331.00
2022-12-19T19:52:40.438Z,100324.00
2022-12-19T19:55:15.673Z,100325.00
2022-12-19T19:57:49.129Z,100324.00
2022-12-19T20:00:23.138Z,100315.00
2022-12-19T20:02:56.384Z,100333.00
2022-12-19T20:05:29.340Z,100320.00
2022-12-19T20:08:02.418Z,100319.00
2022-12-19T20:10:35.258Z,100332.00
2022-12-19T20:13:08.233Z,100333.00
2022-12-19T20:15:47.739Z,100337.00
2022-12-19T20:18:15.295Z,100338.00
2022-12-19T20:20:49.584Z,100336.00
2022-12-19T20:23:22.610Z,100335.00
2022-12-19T20:25:59.829Z,100340.00
2022-12-19T20:28:32.938Z,100336.00
2022-12-19T20:31:05.747Z,100323.00
2022-12-19T20:33:38.742Z,100318.00
2022-12-19T20:36:16.335Z,100324.00
2022-12-19T20:38:50.381Z,100315.00
2022-12-19T20:41:23.190Z,100314.00
2022-12-19T20:43:56.022Z,100321.00
2022-12-19T20:46:29.558Z,100322.00
2022-12-19T20:49:02.974Z,100321.00
2022-12-19T20:51:35.897Z,100335.00
2022-12-19T20:54:10.651Z,100315.00
2022-12-19T20:56:44.511Z,100323.00
2022-12-19T20:59:17.495Z,100316.00
2022-12-19T21:01:52.942Z,100332.00
2022-12-19T21:04:26.168Z,100314.00
2022-12-19T21:06:59.480Z,100311.00
2022-12-19T21:09:33.322Z,100308.00
2022-12-19T21:12:06.261Z,100315.00
2022-12-19T21:14:39.126Z,100308.00
2022-12-19T21:17:12.027Z,100304.00
2022-12-19T21:19:45.151Z,100310.00
2022-12-19T21:22:18.199Z,100302.00
2022-12-19T21:24:51.199Z,100309.00
2022-12-19T21:27:24.185Z,100299.00
2022-12-19T21:29:57.240Z,100292.00
2022-12-19T21:32:30.291Z,100288.00
2022-12-19T21:35:03.196Z,100295.00
2022-12-19T21:37:41.618Z,100288.00
2022-12-19T21:40:11.320Z,100289.00
2022-12-19T21:42:44.245Z,100292.00
2022-12-19T21:45:17.731Z,100303.00
2022-12-19T21:47:51.599Z,100287.00
2022-12-19T21:50:24.508Z,100295.00
2022-12-19T21:52:57.317Z,100293.00
2022-12-19T21:55:30.264Z,100292.00
2022-12-19T21:58:04.077Z,100295.00
2022-12-19T22:00:39.409Z,100286.00
2022-12-19T22:03:14.464Z,100288.00
2022-12-19T22:05:46.301Z,100293.00
2022-12-19T22:08:19.376Z,100288.00
2022-12-19T22:10:52.541Z,100286.00
2022-12-19T22:13:25.694Z,100289.00
2022-12-19T22:15:59.762Z,100284.00
2022-12-19T22:18:32.832Z,100279.00
2022-12-19T22:21:05.804Z,100285.00
2022-12-19T22:23:38.901Z,100279.00
2022-12-19T22:26:16.706Z,100282.00
2022-12-19T22:28:51.864Z,100281.00
2022-12-19T22:31:29.883Z,100280.00
2022-12-19T22:34:04.783Z,100279.00
2022-12-19T22:36:38.513Z,100282.00
2022-12-19T22:39:13.239Z,100280.00
2022-12-19T22:41:46.261Z,100275.00
2022-12-19T22:44:24.321Z,100274.00
2022-12-19T22:46:57.896Z,100269.00
2022-12-19T22:49:30.670Z,100261.00
2022-12-19T22:52:03.691Z,100259.00
2022-12-19T22:54:36.553Z,100254.00
2022-12-19T22:57:09.612Z,100250.00
2022-12-19T22:59:42.535Z,100252.00
2022-12-19T23:02:15.686Z,100254.00
2022-12-19T23:04:48.796Z,100251.00
2022-12-19T23:07:21.736Z,100248.00
2022-12-19T23:09:54.502Z,100248.00
2022-12-19T23:12:27.545Z,100242.00
2022-12-19T23:15:00.422Z,100245.00
2022-12-19T23:17:33.287Z,100229.00
2022-12-19T23:20:06.473Z,100240.00
2022-12-19T23:22:39.390Z,100244.00
2022-12-19T23:25:13.133Z,100235.00
2022-12-19T23:27:46.105Z,100240.00
2022-12-19T23:30:18.870Z,100228.00
2022-12-19T23:32:51.562Z,100233.00
2022-12-19T23:35:24.561Z,100241.00
2022-12-19T23:37:57.559Z,100232.00
2022-12-19T23:40:30.759Z,100227.00
2022-12-19T23:43:03.777Z,100217.00
2022-12-19T23:45:38.363Z,100215.00
2022-12-19T23:48:11.422Z,100209.00
2022-12-19T23:50:44.418Z,100208.00
2022-12-19T23:53:20.418Z,100213.00
2022-12-19T23:55:54.469Z,100208.00
2022-12-19T23:58:27.579Z,100209.00
